Time;durP1;ratioP1;P1;durP2;ratioP2;P2;SDS_P1;SDS_P2;PMS_P1;PMS_P2;Temp;Humidity;BMP_temperature;BMP_pressure;BME280_temperature;BME280_humidity;BME280_pressure;Samples;Min_cycle;Max_cycle;Signal;HPM_P1;HPM_P2
2020/12/23 00:00:07;;;;;;;0.60;0.60;;;;;;;12.63;78.52;95866.50;5053111;28;20217;-75
2020/12/23 00:02:33;;;;;;;0.80;0.70;;;;;;;12.66;78.42;95866.16;5069345;28;20204;-74
2020/12/23 00:04:59;;;;;;;0.80;0.80;;;;;;;12.67;77.89;95865.16;5069099;28;20209;-78
2020/12/23 00:07:25;;;;;;;0.60;0.60;;;;;;;12.70;77.77;95860.41;5068619;28;20248;-77
2020/12/23 00:09:51;;;;;;;0.67;0.60;;;;;;;12.70;77.47;95868.16;5069467;28;20200;-78
2020/12/23 00:12:18;;;;;;;0.60;0.60;;;;;;;12.68;77.06;95851.28;5069659;28;20262;-77
2020/12/23 00:14:44;;;;;;;0.70;0.70;;;;;;;12.67;77.64;95858.22;5069054;28;20193;-77
2020/12/23 00:17:10;;;;;;;0.80;0.80;;;;;;;12.64;76.74;95858.59;5069420;28;20721;-77
2020/12/23 00:19:36;;;;;;;0.87;0.83;;;;;;;12.62;76.89;95842.47;5069138;28;20217;-75
2020/12/23 00:22:02;;;;;;;0.80;0.80;;;;;;;12.59;76.93;95845.41;5069248;28;20193;-79
2020/12/23 00:24:28;;;;;;;0.70;0.70;;;;;;;12.56;76.72;95848.34;5068848;28;20201;-77
2020/12/23 00:26:54;;;;;;;0.70;0.70;;;;;;;12.58;76.47;95843.00;5069224;28;20305;-77
2020/12/23 00:29:21;;;;;;;0.70;0.70;;;;;;;12.54;76.45;95850.31;5069353;28;20193;-77
2020/12/23 00:31:47;;;;;;;0.60;0.60;;;;;;;12.54;76.25;95841.75;5068922;28;20196;-77
2020/12/23 00:34:13;;;;;;;0.80;0.80;;;;;;;12.58;76.45;95840.41;5068529;28;20281;-75
2020/12/23 00:36:39;;;;;;;0.70;0.70;;;;;;;12.52;76.19;95849.69;5068699;28;20224;-74
2020/12/23 00:39:04;;;;;;;0.63;0.63;;;;;;;12.52;76.20;95841.13;5069099;28;20576;-77
2020/12/23 00:41:30;;;;;;;1.03;0.93;;;;;;;12.49;75.99;95836.34;5068949;28;20258;-74
2020/12/23 00:43:56;;;;;;;0.70;0.70;;;;;;;12.52;75.66;95834.19;5069230;28;20739;-77
2020/12/23 00:46:23;;;;;;;1.23;0.80;;;;;;;12.53;75.59;95835.00;5068710;28;20223;-78
2020/12/23 00:48:49;;;;;;;0.80;0.80;;;;;;;12.53;75.29;95835.78;5069116;28;20799;-78
2020/12/23 00:51:15;;;;;;;0.63;0.63;;;;;;;12.50;75.06;95828.44;5068614;28;20193;-73
2020/12/23 00:53:42;;;;;;;0.60;0.60;;;;;;;12.52;75.05;95825.63;5068363;28;20192;-78
2020/12/23 00:56:11;;;;;;;1.17;0.90;;;;;;;12.54;74.79;95828.84;5068130;28;20217;-77
2020/12/23 00:58:37;;;;;;;0.70;0.70;;;;;;;12.49;74.83;95833.78;5068277;28;20200;-78
2020/12/23 01:01:03;;;;;;;0.73;0.70;;;;;;;12.48;74.55;95832.97;5068910;28;20722;-77
2020/12/23 01:03:30;;;;;;;0.60;0.60;;;;;;;12.47;74.49;95841.69;5068377;28;20200;-78
2020/12/23 01:05:56;;;;;;;0.93;0.80;;;;;;;12.47;74.28;95846.88;5068112;28;20706;-75
2020/12/23 01:08:22;;;;;;;0.50;0.50;;;;;;;12.47;74.15;95848.66;5068169;28;20246;-77
2020/12/23 01:10:48;;;;;;;0.60;0.60;;;;;;;12.44;74.42;95844.66;5068462;28;20530;-77
2020/12/23 01:13:15;;;;;;;0.70;0.70;;;;;;;12.42;74.11;95828.53;5068344;28;20197;-77
2020/12/23 01:15:41;;;;;;;1.03;0.80;;;;;;;12.43;73.83;95822.38;5068079;28;20246;-78
2020/12/23 01:18:07;;;;;;;0.80;0.70;;;;;;;12.47;73.97;95833.16;5068109;28;20274;-74
2020/12/23 01:20:33;;;;;;;0.60;0.60;;;;;;;12.43;73.97;95836.09;5068317;28;20220;-77
2020/12/23 01:22:59;;;;;;;0.73;0.70;;;;;;;12.47;73.68;95833.16;5068088;28;20216;-78
2020/12/23 01:25:25;;;;;;;0.80;0.80;;;;;;;12.41;73.40;95832.88;5067741;28;20197;-77
2020/12/23 01:27:51;;;;;;;0.70;0.70;;;;;;;12.45;73.58;95838.50;5068279;28;20896;-78
2020/12/23 01:30:17;;;;;;;1.43;0.70;;;;;;;12.43;73.11;95832.72;5067771;28;20215;-77
2020/12/23 01:32:43;;;;;;;0.87;0.70;;;;;;;12.42;73.46;95833.69;5068114;28;20250;-77
2020/12/23 01:35:10;;;;;;;0.73;0.73;;;;;;;12.44;73.53;95832.53;5067601;28;20276;-77
2020/12/23 01:37:36;;;;;;;1.83;0.70;;;;;;;12.41;73.00;95827.72;5068180;28;20312;-77
2020/12/23 01:40:03;;;;;;;0.60;0.60;;;;;;;12.48;73.27;95827.81;5067736;28;20217;-77
2020/12/23 01:42:32;;;;;;;0.70;0.70;;;;;;;12.45;73.15;95821.22;5068125;28;20286;-75
2020/12/23 01:44:57;;;;;;;0.70;0.70;;;;;;;12.45;73.05;95826.38;5067750;28;20244;-73
2020/12/23 01:47:23;;;;;;;0.97;0.60;;;;;;;12.46;72.78;95824.59;5068082;28;20216;-72
2020/12/23 01:49:50;;;;;;;1.03;0.70;;;;;;;12.50;72.46;95822.47;5067693;28;20247;-77
2020/12/23 01:52:17;;;;;;;0.80;0.80;;;;;;;12.51;72.28;95816.31;5067606;28;20204;-77
2020/12/23 01:54:44;;;;;;;0.70;0.70;;;;;;;12.54;72.45;95826.25;5067068;28;20197;-77
2020/12/23 01:57:10;;;;;;;0.70;0.70;;;;;;;12.49;72.50;95828.63;5068009;28;20217;-77
2020/12/23 01:59:37;;;;;;;1.13;0.80;;;;;;;12.54;72.57;95821.09;5067487;28;20219;-77
2020/12/23 02:02:21;;;;;;;0.70;0.70;;;;;;;12.50;72.19;95814.72;5067804;28;20197;-78
2020/12/23 02:04:47;;;;;;;0.60;0.60;;;;;;;12.50;72.30;95818.09;5067057;28;20192;-79
2020/12/23 02:07:13;;;;;;;0.80;0.80;;;;;;;12.51;72.17;95819.66;5068030;28;20217;-78
2020/12/23 02:09:41;;;;;;;0.80;0.70;;;;;;;12.52;71.87;95823.06;5067378;28;20939;-74
2020/12/23 02:12:08;;;;;;;1.07;0.80;;;;;;;12.47;71.89;95815.06;5067879;28;20246;-77
2020/12/23 02:14:34;;;;;;;0.60;0.60;;;;;;;12.49;71.92;95821.66;5066865;28;20220;-74
2020/12/23 02:16:59;;;;;;;0.70;0.70;;;;;;;12.47;71.74;95815.88;5067490;28;20644;-78
2020/12/23 02:19:25;;;;;;;0.77;0.77;;;;;;;12.49;71.59;95813.91;5067538;28;20223;-73
2020/12/23 02:21:52;;;;;;;1.33;0.80;;;;;;;12.56;71.56;95813.97;5067984;28;20222;-77
2020/12/23 02:24:18;;;;;;;0.90;0.70;;;;;;;12.54;71.45;95808.97;5066856;28;20723;-78
2020/12/23 02:26:44;;;;;;;0.70;0.70;;;;;;;12.51;71.29;95811.16;5067139;28;20227;-75
2020/12/23 02:29:10;;;;;;;0.60;0.60;;;;;;;12.55;71.27;95805.41;5067308;28;20193;-75
2020/12/23 02:31:36;;;;;;;0.60;0.60;;;;;;;12.56;71.35;95799.28;5070078;28;20204;-78
2020/12/23 02:34:02;;;;;;;0.77;0.70;;;;;;;12.61;71.33;95799.53;5071112;28;20200;-78
2020/12/23 02:36:28;;;;;;;0.67;0.67;;;;;;;12.63;71.18;95809.69;5071208;28;20404;-76
2020/12/23 02:38:54;;;;;;;0.80;0.60;;;;;;;12.61;71.14;95803.91;5070950;28;20224;-74
2020/12/23 02:41:20;;;;;;;0.80;0.80;;;;;;;12.57;70.97;95800.06;5071303;28;20208;-75
2020/12/23 02:43:46;;;;;;;0.50;0.50;;;;;;;12.59;71.16;95792.94;5071241;28;20738;-79
2020/12/23 02:46:12;;;;;;;0.57;0.57;;;;;;;12.60;70.52;95790.19;5070446;28;20213;-75
2020/12/23 02:48:38;;;;;;;0.60;0.60;;;;;;;12.64;71.08;95793.19;5071977;28;20781;-75
2020/12/23 02:51:04;;;;;;;0.70;0.70;;;;;;;12.63;70.52;95787.22;5070920;28;20203;-77
2020/12/23 02:53:30;;;;;;;0.60;0.60;;;;;;;12.61;70.98;95778.06;5071011;28;20250;-78
2020/12/23 02:55:55;;;;;;;0.60;0.60;;;;;;;12.60;70.71;95784.22;5070503;28;20229;-78
2020/12/23 02:58:22;;;;;;;0.70;0.70;;;;;;;12.58;70.55;95779.22;5071212;28;20200;-75
2020/12/23 03:00:48;;;;;;;1.73;0.60;;;;;;;12.54;70.70;95780.56;5070506;28;20757;-77
2020/12/23 03:03:15;;;;;;;0.60;0.60;;;;;;;12.50;70.37;95779.38;5070669;28;20197;-77
2020/12/23 03:05:41;;;;;;;0.60;0.60;;;;;;;12.47;70.79;95778.94;5070455;28;20201;-77
2020/12/23 03:08:07;;;;;;;0.67;0.67;;;;;;;12.48;70.97;95773.56;5070961;28;20686;-78
2020/12/23 03:10:33;;;;;;;0.70;0.70;;;;;;;12.49;70.79;95777.75;5070883;28;20204;-78
2020/12/23 03:12:59;;;;;;;0.60;0.60;;;;;;;12.50;70.50;95773.41;5070539;28;20200;-78
2020/12/23 03:15:26;;;;;;;0.60;0.60;;;;;;;12.47;70.41;95763.44;5070690;28;20326;-75
2020/12/23 03:17:51;;;;;;;0.60;0.60;;;;;;;12.41;70.64;95757.22;5071090;28;20224;-74
2020/12/23 03:20:17;;;;;;;0.60;0.60;;;;;;;12.41;70.67;95758.00;5070502;28;20707;-73
2020/12/23 03:22:43;;;;;;;0.60;0.60;;;;;;;12.47;70.57;95756.47;5070705;28;20219;-77
2020/12/23 03:25:09;;;;;;;0.70;0.70;;;;;;;12.44;70.47;95749.91;5069908;28;20204;-79
2020/12/23 03:27:35;;;;;;;0.60;0.60;;;;;;;12.49;70.70;95754.50;5070410;28;20224;-77
2020/12/23 03:30:01;;;;;;;0.60;0.60;;;;;;;12.48;70.24;95750.34;5070287;28;20334;-77
2020/12/23 03:32:28;;;;;;;0.97;0.60;;;;;;;12.48;70.39;95745.16;5070501;28;20208;-75
2020/12/23 03:34:54;;;;;;;0.50;0.50;;;;;;;12.50;70.46;95750.16;5069980;28;20205;-79
2020/12/23 03:37:20;;;;;;;0.50;0.50;;;;;;;12.51;70.59;95742.19;5069847;28;20223;-77
2020/12/23 03:39:46;;;;;;;0.60;0.60;;;;;;;12.55;70.59;95742.63;5070184;28;20220;-78
2020/12/23 03:42:14;;;;;;;0.60;0.60;;;;;;;12.56;70.20;95744.22;5070088;28;20201;-75
2020/12/23 03:44:40;;;;;;;0.50;0.50;;;;;;;12.57;70.09;95738.09;5069712;28;20299;-77
2020/12/23 03:47:06;;;;;;;0.60;0.60;;;;;;;12.59;69.86;95738.69;5069970;28;20221;-75
2020/12/23 03:49:32;;;;;;;0.73;0.73;;;;;;;12.60;70.19;95741.09;5070318;28;20196;-79
2020/12/23 03:51:58;;;;;;;0.70;0.60;;;;;;;12.62;70.21;95740.91;5070372;28;20204;-74
2020/12/23 03:54:24;;;;;;;0.60;0.60;;;;;;;12.62;70.31;95744.31;5069547;28;20684;-75
2020/12/23 03:56:50;;;;;;;0.50;0.50;;;;;;;12.58;69.85;95739.69;5069567;28;20281;-74
2020/12/23 03:59:16;;;;;;;0.60;0.60;;;;;;;12.57;70.04;95749.22;5069411;28;20219;-77
2020/12/23 04:01:42;;;;;;;0.67;0.60;;;;;;;12.60;70.31;95735.94;5069888;28;20591;-78
2020/12/23 04:04:08;;;;;;;0.80;0.80;;;;;;;12.63;70.12;95734.78;5069744;28;20200;-77
2020/12/23 04:06:34;;;;;;;1.07;0.70;;;;;;;12.61;69.93;95728.97;5069090;28;20688;-77
2020/12/23 04:09:00;;;;;;;0.60;0.60;;;;;;;12.57;70.09;95727.75;5069567;28;20200;-77
2020/12/23 04:11:26;;;;;;;0.60;0.60;;;;;;;12.58;70.13;95727.56;5069359;28;20193;-77
2020/12/23 04:13:52;;;;;;;0.60;0.60;;;;;;;12.51;69.82;95720.75;5069427;28;20204;-78
2020/12/23 04:16:18;;;;;;;0.63;0.63;;;;;;;12.53;70.01;95724.72;5069457;28;20221;-77
2020/12/23 04:18:44;;;;;;;0.60;0.60;;;;;;;12.61;69.93;95721.22;5069407;28;20201;-77
2020/12/23 04:21:10;;;;;;;0.60;0.60;;;;;;;12.60;70.01;95722.22;5069401;28;20337;-78
2020/12/23 04:23:37;;;;;;;0.70;0.70;;;;;;;12.57;70.07;95718.22;5069641;28;20197;-78
2020/12/23 04:26:02;;;;;;;0.70;0.70;;;;;;;12.54;70.20;95713.41;5069223;28;20212;-77
2020/12/23 04:28:28;;;;;;;0.70;0.70;;;;;;;12.53;70.06;95711.81;5069345;28;20223;-74
2020/12/23 04:30:54;;;;;;;0.93;0.70;;;;;;;12.49;69.74;95707.22;5069276;28;20574;-77
2020/12/23 04:33:20;;;;;;;0.77;0.77;;;;;;;12.51;70.08;95710.44;5069256;28;20204;-74
2020/12/23 04:35:46;;;;;;;0.70;0.70;;;;;;;12.48;69.75;95708.22;5068971;28;20196;-78
2020/12/23 04:38:12;;;;;;;0.60;0.60;;;;;;;12.45;69.78;95709.38;5069012;28;20200;-75
2020/12/23 04:40:39;;;;;;;0.57;0.57;;;;;;;12.45;69.91;95719.72;5068808;28;20220;-77
2020/12/23 04:43:06;;;;;;;0.60;0.60;;;;;;;12.47;69.92;95706.63;5068783;28;20284;-77
2020/12/23 04:45:32;;;;;;;0.63;0.63;;;;;;;12.48;69.48;95703.84;5068511;28;20197;-75
2020/12/23 04:48:00;;;;;;;0.70;0.70;;;;;;;12.48;69.81;95703.06;5068884;28;20266;-74
2020/12/23 04:50:31;;;;;;;0.60;0.60;;;;;;;12.49;69.29;95702.06;5068889;28;20715;-77
2020/12/23 04:52:57;;;;;;;0.60;0.60;;;;;;;12.50;69.45;95693.34;5068393;28;20254;-77
2020/12/23 04:55:23;;;;;;;0.60;0.60;;;;;;;12.54;69.08;95692.75;5068612;28;20719;-77
2020/12/23 04:57:55;;;;;;;0.63;0.63;;;;;;;12.51;69.05;95685.38;5067225;28;20270;-75
2020/12/23 05:00:22;;;;;;;0.57;0.57;;;;;;;12.53;68.93;95683.41;5067540;28;20440;-78
2020/12/23 05:02:48;;;;;;;0.60;0.60;;;;;;;12.53;68.92;95685.19;5068533;28;20254;-77
2020/12/23 05:05:14;;;;;;;0.80;0.80;;;;;;;12.59;68.84;95687.84;5068515;28;20200;-78
2020/12/23 05:07:40;;;;;;;0.60;0.60;;;;;;;12.60;68.86;95689.44;5067611;28;20220;-77
2020/12/23 05:10:07;;;;;;;0.67;0.67;;;;;;;12.65;68.75;95679.34;5066908;28;20678;-78
2020/12/23 05:12:32;;;;;;;0.60;0.60;;;;;;;12.62;68.41;95676.34;5067553;28;20193;-77
2020/12/23 05:15:04;;;;;;;0.60;0.60;;;;;;;12.63;68.40;95686.50;5068115;28;20407;-77
2020/12/23 05:17:30;;;;;;;1.40;0.70;;;;;;;12.68;68.17;95673.81;5067946;28;20220;-74
2020/12/23 05:19:56;;;;;;;0.60;0.60;;;;;;;12.69;68.44;95670.25;5067754;28;20330;-78
2020/12/23 05:22:22;;;;;;;0.63;0.63;;;;;;;12.70;67.91;95673.63;5067672;28;20205;-79
2020/12/23 05:24:53;;;;;;;0.70;0.70;;;;;;;12.69;68.17;95679.78;5067700;28;20200;-75
2020/12/23 05:27:21;;;;;;;0.90;0.60;;;;;;;12.70;67.78;95681.38;5067363;28;20274;-73
2020/12/23 05:29:48;;;;;;;0.70;0.70;;;;;;;12.67;67.76;95690.31;5068429;28;20618;-77
2020/12/23 05:32:15;;;;;;;0.50;0.50;;;;;;;12.70;68.16;95684.75;5067488;28;20243;-77
2020/12/23 05:34:42;;;;;;;0.60;0.60;;;;;;;12.72;67.67;95689.72;5067758;28;20201;-77
2020/12/23 05:37:08;;;;;;;0.60;0.60;;;;;;;12.70;67.59;95677.00;5067833;28;20756;-79
2020/12/23 05:39:38;;;;;;;0.60;0.60;;;;;;;12.75;67.55;95686.78;5067849;28;20216;-79
2020/12/23 05:42:04;;;;;;;0.67;0.67;;;;;;;12.80;67.40;95687.81;5067913;28;20243;-75
2020/12/23 05:44:30;;;;;;;1.07;0.70;;;;;;;12.79;67.31;95685.41;5067811;28;20295;-78
2020/12/23 05:46:56;;;;;;;0.57;0.57;;;;;;;12.80;67.15;95676.69;5067649;28;20217;-77
2020/12/23 05:49:25;;;;;;;0.50;0.50;;;;;;;12.78;66.72;95674.28;5066624;28;20273;-77
2020/12/23 05:51:52;;;;;;;0.70;0.70;;;;;;;12.79;67.17;95677.66;5055436;28;20209;-74
2020/12/23 05:54:20;;;;;;;0.83;0.70;;;;;;;12.80;67.37;95682.66;5061945;28;20695;-78
2020/12/23 05:56:48;;;;;;;0.80;0.80;;;;;;;12.77;66.83;95677.84;5059309;28;20235;-75
2020/12/23 05:59:14;;;;;;;0.60;0.60;;;;;;;12.74;66.62;95673.06;5067227;28;20235;-74
2020/12/23 06:01:40;;;;;;;0.60;0.60;;;;;;;12.80;66.71;95672.31;5050092;28;20193;-75
2020/12/23 06:04:10;;;;;;;0.70;0.70;;;;;;;12.84;66.69;95666.78;5046618;28;20205;-75
2020/12/23 06:06:37;;;;;;;0.60;0.60;;;;;;;12.82;66.29;95661.78;5047218;28;20221;-74
2020/12/23 06:09:06;;;;;;;0.60;0.60;;;;;;;12.81;66.53;95655.03;5062389;28;20186;-74
2020/12/23 06:11:34;;;;;;;0.70;0.70;;;;;;;12.79;66.18;95662.16;5057178;28;20189;-75
2020/12/23 06:14:09;;;;;;;0.60;0.60;;;;;;;12.82;66.17;95672.13;5065364;28;20292;-72
2020/12/23 06:16:36;;;;;;;0.70;0.70;;;;;;;12.83;66.15;95672.94;5062573;28;20224;-74
2020/12/23 06:19:04;;;;;;;0.60;0.60;;;;;;;12.85;66.02;95678.72;5064068;28;20193;-75
2020/12/23 06:21:30;;;;;;;0.97;0.80;;;;;;;12.83;65.93;95673.72;5057255;28;20201;-74
2020/12/23 06:24:04;;;;;;;0.70;0.70;;;;;;;12.74;65.76;95673.06;5057586;28;20204;-78
2020/12/23 06:26:32;;;;;;;0.60;0.60;;;;;;;12.77;65.92;95666.72;5063955;28;20220;-74
2020/12/23 06:28:59;;;;;;;0.60;0.60;;;;;;;12.79;66.26;95662.16;5062353;28;20330;-75
2020/12/23 06:31:30;;;;;;;0.60;0.60;;;;;;;12.80;65.66;95664.56;5066371;28;20604;-76
2020/12/23 06:33:58;;;;;;;0.60;0.60;;;;;;;12.83;65.28;95676.31;5061088;28;20189;-74
2020/12/23 06:36:30;;;;;;;0.50;0.50;;;;;;;12.82;65.54;95671.31;5066487;28;20213;-74
2020/12/23 06:39:23;;;;;;;0.73;0.60;;;;;;;12.82;65.27;95666.97;5065072;28;20197;-73
2020/12/23 06:41:51;;;;;;;1.23;0.70;;;;;;;12.82;65.60;95672.13;5066288;28;20266;-74
2020/12/23 06:44:18;;;;;;;0.60;0.60;;;;;;;12.85;65.60;95664.00;5066106;28;20205;-75
2020/12/23 06:47:09;;;;;;;0.60;0.60;;;;;;;12.80;64.95;95668.94;5065884;28;20220;-76
2020/12/23 06:49:39;;;;;;;0.60;0.60;;;;;;;12.82;65.18;95664.38;5055011;28;20205;-74
2020/12/23 06:52:30;;;;;;;0.70;0.70;;;;;;;12.78;64.65;95676.06;5065508;28;20726;-74
2020/12/23 06:55:00;;;;;;;0.73;0.70;;;;;;;12.84;65.14;95667.56;5057896;28;20197;-76
2020/12/23 06:57:55;;;;;;;0.70;0.70;;;;;;;12.85;64.71;95660.63;5065794;28;20217;-73
2020/12/23 07:00:39;;;;;;;0.57;0.57;;;;;;;12.91;64.55;95665.00;5064618;28;20223;-75
2020/12/23 07:03:08;;;;;;;0.67;0.67;;;;;;;12.92;64.48;95669.19;5062475;28;20208;-78
2020/12/23 07:05:43;;;;;;;0.80;0.80;;;;;;;12.94;64.21;95674.97;5065789;28;20200;-74
2020/12/23 07:08:10;;;;;;;0.60;0.60;;;;;;;12.93;64.02;95673.38;5065456;28;20200;-75
2020/12/23 07:10:39;;;;;;;0.60;0.60;;;;;;;12.91;64.15;95670.19;5051544;28;20247;-77
2020/12/23 07:13:07;;;;;;;0.67;0.60;;;;;;;12.95;64.17;95676.56;5065630;28;20193;-75
2020/12/23 07:15:35;;;;;;;0.83;0.70;;;;;;;12.93;63.77;95671.59;5060640;28;20208;-77
2020/12/23 07:18:04;;;;;;;0.90;0.70;;;;;;;12.98;64.23;95676.22;5060859;28;20196;-75
2020/12/23 07:20:33;;;;;;;0.90;0.80;;;;;;;13.01;63.63;95681.00;5063436;28;20221;-73
2020/12/23 07:23:04;;;;;;;0.70;0.70;;;;;;;12.97;63.55;95669.44;5055395;28;20198;-77
2020/12/23 07:25:33;;;;;;;1.73;0.70;;;;;;;13.03;63.31;95669.50;5058309;28;20288;-77
2020/12/23 07:28:00;;;;;;;0.70;0.70;;;;;;;13.01;63.34;95671.47;5058516;28;20232;-75
2020/12/23 07:30:27;;;;;;;0.80;0.80;;;;;;;13.04;63.32;95667.69;5057829;28;20200;-77
2020/12/23 07:33:01;;;;;;;0.70;0.70;;;;;;;13.07;63.66;95677.66;5057903;28;20197;-77
2020/12/23 07:35:28;;;;;;;0.70;0.70;;;;;;;13.09;63.66;95668.72;5058106;28;20205;-76
2020/12/23 07:37:58;;;;;;;0.60;0.60;;;;;;;13.06;63.29;95657.97;5058329;28;20727;-75
2020/12/23 07:40:24;;;;;;;0.60;0.60;;;;;;;13.02;63.39;95659.34;5058127;28;20312;-74
2020/12/23 07:42:51;;;;;;;1.03;0.63;;;;;;;13.07;63.78;95668.13;5057460;28;20196;-77
2020/12/23 07:45:19;;;;;;;0.70;0.70;;;;;;;13.05;63.24;95669.31;5059293;28;20642;-77
2020/12/23 07:47:56;;;;;;;1.03;0.80;;;;;;;13.08;63.42;95666.34;5059179;28;20228;-77
2020/12/23 07:50:23;;;;;;;1.53;0.70;;;;;;;13.19;63.90;95665.03;5057886;28;20228;-76
2020/12/23 07:52:49;;;;;;;1.17;0.80;;;;;;;13.19;63.10;95675.38;5053376;28;20212;-74
2020/12/23 07:55:17;;;;;;;0.83;0.80;;;;;;;13.22;63.10;95673.22;5068233;28;20200;-77
2020/12/23 07:57:43;;;;;;;0.70;0.70;;;;;;;13.28;63.05;95677.59;5068140;28;20213;-78
2020/12/23 08:00:11;;;;;;;0.70;0.70;;;;;;;13.34;63.20;95676.06;5067758;28;20952;-76
2020/12/23 08:02:38;;;;;;;0.80;0.80;;;;;;;13.33;62.84;95679.63;5068122;28;20855;-78
2020/12/23 08:05:05;;;;;;;1.73;0.70;;;;;;;13.35;63.38;95678.44;5067921;28;20204;-75
2020/12/23 08:07:31;;;;;;;0.83;0.83;;;;;;;13.32;63.14;95678.81;5067718;28;20212;-78
2020/12/23 08:10:06;;;;;;;1.00;0.90;;;;;;;13.33;62.98;95671.88;5067555;28;20201;-77
2020/12/23 08:12:32;;;;;;;3.40;0.90;;;;;;;13.31;62.88;95679.00;5068268;28;20283;-77
2020/12/23 08:14:58;;;;;;;1.10;1.00;;;;;;;13.34;62.83;95665.69;5067568;28;20189;-76
2020/12/23 08:17:25;;;;;;;0.83;0.83;;;;;;;13.30;62.95;95673.03;5067758;28;20220;-75
2020/12/23 08:20:06;;;;;;;1.00;0.90;;;;;;;13.29;62.51;95670.66;5067847;28;20224;-76
2020/12/23 08:22:33;;;;;;;1.43;1.13;;;;;;;13.26;64.27;95676.22;5067666;28;20192;-77
2020/12/23 08:25:08;;;;;;;1.97;1.40;;;;;;;13.37;65.85;95679.06;5067628;28;20284;-75
2020/12/23 08:27:35;;;;;;;1.67;1.07;;;;;;;13.49;66.05;95681.88;5067569;28;20216;-78
2020/12/23 08:30:03;;;;;;;2.60;1.07;;;;;;;13.59;66.43;95681.56;5067318;28;20189;-73
2020/12/23 08:32:34;;;;;;;2.40;1.20;;;;;;;13.64;64.50;95672.22;5068221;28;20201;-73
2020/12/23 08:35:01;;;;;;;0.87;0.87;;;;;;;13.66;62.94;95675.41;5063337;28;20284;-74
2020/12/23 08:37:29;;;;;;;0.70;0.70;;;;;;;13.65;62.65;95676.41;5056137;28;20217;-73
2020/12/23 08:39:56;;;;;;;0.93;0.90;;;;;;;13.56;62.16;95672.38;5067325;28;20270;-78
2020/12/23 08:42:22;;;;;;;0.97;0.80;;;;;;;13.55;62.69;95663.03;5068025;28;20234;-74
2020/12/23 08:44:53;;;;;;;0.73;0.73;;;;;;;13.51;63.14;95673.94;5067192;28;20204;-73
2020/12/23 08:47:22;;;;;;;0.80;0.80;;;;;;;13.47;63.11;95671.72;5067689;28;20270;-75
2020/12/23 08:49:48;;;;;;;0.80;0.80;;;;;;;13.45;63.60;95663.41;5067247;28;20656;-80
2020/12/23 08:52:18;;;;;;;0.90;0.80;;;;;;;13.45;63.60;95668.56;5067285;28;20201;-77
2020/12/23 08:54:45;;;;;;;0.80;0.80;;;;;;;13.42;63.36;95666.34;5066402;28;20197;-77
2020/12/23 08:57:12;;;;;;;1.53;0.80;;;;;;;13.42;63.83;95666.34;5067037;28;20308;-78
2020/12/23 08:59:41;;;;;;;0.87;0.87;;;;;;;13.38;63.24;95661.75;5066885;28;20270;-74
2020/12/23 09:02:11;;;;;;;1.00;0.90;;;;;;;13.39;63.63;95655.59;5067135;28;20201;-77
2020/12/23 09:04:37;;;;;;;0.80;0.80;;;;;;;13.41;63.94;95659.59;5066790;28;20247;-73
2020/12/23 09:07:05;;;;;;;1.23;1.00;;;;;;;13.44;64.97;95668.75;5066868;28;20213;-77
2020/12/23 09:09:31;;;;;;;1.00;1.00;;;;;;;13.47;65.00;95665.75;5060452;28;20205;-75
2020/12/23 09:11:58;;;;;;;1.33;1.13;;;;;;;13.56;64.63;95656.84;5059817;28;20189;-75
2020/12/23 09:14:28;;;;;;;1.30;1.20;;;;;;;13.54;63.94;95655.44;5066964;28;20188;-73
2020/12/23 09:17:08;;;;;;;0.97;0.87;;;;;;;13.49;63.67;95654.22;5065132;28;20220;-75
2020/12/23 09:19:47;;;;;;;2.10;0.90;;;;;;;13.41;64.35;95658.78;5065704;28;20270;-74
2020/12/23 09:22:24;;;;;;;0.97;0.70;;;;;;;13.45;63.96;95657.41;5066760;28;20267;-74
2020/12/23 09:24:50;;;;;;;1.00;0.80;;;;;;;13.47;64.28;95652.81;5066807;28;20188;-72
2020/12/23 09:27:22;;;;;;;0.90;0.90;;;;;;;13.50;63.83;95649.84;5066733;28;20266;-77
2020/12/23 09:29:48;;;;;;;0.80;0.80;;;;;;;13.48;63.80;95654.44;5066586;28;20200;-74
2020/12/23 09:32:14;;;;;;;0.80;0.80;;;;;;;13.48;63.89;95652.63;5066847;28;20283;-73
2020/12/23 09:34:40;;;;;;;2.20;1.00;;;;;;;13.52;64.31;95653.06;5065576;28;20258;-73
2020/12/23 09:37:06;;;;;;;0.80;0.80;;;;;;;13.52;64.16;95649.66;5066566;28;20777;-74
2020/12/23 09:39:34;;;;;;;0.80;0.80;;;;;;;13.45;64.06;95655.63;5066091;28;20642;-74
2020/12/23 09:42:01;;;;;;;1.07;1.00;;;;;;;13.43;64.03;95665.38;5066481;28;20204;-75
2020/12/23 09:44:28;;;;;;;1.20;1.10;;;;;;;13.46;63.84;95656.44;5066509;28;20204;-74
2020/12/23 09:46:54;;;;;;;1.50;1.40;;;;;;;13.47;63.91;95651.03;5065565;28;20243;-74
2020/12/23 09:49:20;;;;;;;1.63;1.50;;;;;;;13.50;63.96;95649.84;5065834;28;20837;-74
2020/12/23 09:51:47;;;;;;;1.37;1.27;;;;;;;13.54;64.17;95647.69;5066562;28;20193;-77
2020/12/23 09:54:13;;;;;;;1.63;1.00;;;;;;;13.51;64.31;95655.84;5066145;28;20691;-75
2020/12/23 09:56:46;;;;;;;1.10;1.00;;;;;;;13.53;64.17;95640.91;5065944;28;20303;-76
2020/12/23 09:59:12;;;;;;;1.53;1.20;;;;;;;13.48;64.84;95637.13;5065779;28;20210;-75
2020/12/23 10:01:39;;;;;;;0.90;0.90;;;;;;;13.45;65.56;95622.00;5064959;28;20224;-75
2020/12/23 10:04:05;;;;;;;0.93;0.80;;;;;;;13.44;66.58;95611.84;5059218;28;20197;-74
2020/12/23 10:06:31;;;;;;;2.17;0.80;;;;;;;13.39;66.25;95614.22;5065578;28;20217;-74
2020/12/23 10:08:56;;;;;;;0.83;0.83;;;;;;;13.35;66.52;95616.38;5064691;28;20188;-74
2020/12/23 10:11:22;;;;;;;0.93;0.90;;;;;;;13.38;66.84;95608.25;5054009;28;20245;-74
2020/12/23 10:13:48;;;;;;;1.10;0.90;;;;;;;13.39;67.12;95596.09;5065778;28;20192;-77
2020/12/23 10:16:14;;;;;;;1.20;0.90;;;;;;;13.46;67.00;95592.56;5065744;28;20266;-74
2020/12/23 10:18:41;;;;;;;0.80;0.80;;;;;;;13.50;67.13;95587.78;5065788;28;20204;-75
2020/12/23 10:21:07;;;;;;;0.90;0.90;;;;;;;13.51;67.34;95594.56;5065963;28;20213;-75
2020/12/23 10:23:33;;;;;;;1.00;0.90;;;;;;;13.54;67.43;95586.41;5066198;28;20208;-75
2020/12/23 10:25:59;;;;;;;1.60;0.90;;;;;;;13.54;67.27;95583.81;5066026;28;20197;-73
2020/12/23 10:28:25;;;;;;;1.00;0.90;;;;;;;13.60;67.49;95587.44;5065930;28;20566;-74
2020/12/23 10:30:51;;;;;;;2.20;0.90;;;;;;;13.57;66.86;95577.47;5065540;28;20251;-75
2020/12/23 10:33:17;;;;;;;3.97;2.03;;;;;;;13.55;68.00;95574.28;5066571;28;20207;-75
2020/12/23 10:35:43;;;;;;;1.53;1.13;;;;;;;13.60;67.81;95564.94;5065743;28;20299;-75
2020/12/23 10:38:09;;;;;;;1.17;1.07;;;;;;;13.61;67.41;95565.75;5065709;28;20203;-75
2020/12/23 10:40:35;;;;;;;2.10;0.97;;;;;;;13.56;68.09;95563.72;5065336;28;20216;-75
2020/12/23 10:43:01;;;;;;;3.40;1.20;;;;;;;13.58;68.13;95560.94;5058048;28;20241;-77
2020/12/23 10:45:27;;;;;;;1.30;1.20;;;;;;;13.56;67.96;95552.59;5065821;28;20544;-74
2020/12/23 10:47:53;;;;;;;1.40;1.30;;;;;;;13.59;68.56;95550.41;5065749;28;20225;-75
2020/12/23 10:50:19;;;;;;;1.23;1.10;;;;;;;13.61;68.07;95545.03;5065155;28;20594;-75
2020/12/23 10:52:46;;;;;;;1.20;1.10;;;;;;;13.64;68.06;95548.03;5068507;28;20204;-75
2020/12/23 10:55:11;;;;;;;1.53;1.03;;;;;;;13.65;67.42;95544.47;5069118;28;20567;-75
2020/12/23 10:57:38;;;;;;;1.30;1.10;;;;;;;13.66;66.70;95538.25;5063627;28;20216;-75
2020/12/23 11:00:05;;;;;;;2.27;1.10;;;;;;;13.68;66.83;95540.66;5068774;28;20274;-74
2020/12/23 11:02:31;;;;;;;1.17;1.07;;;;;;;13.75;66.75;95537.09;5069135;28;20189;-78
2020/12/23 11:04:57;;;;;;;2.23;1.20;;;;;;;13.79;66.43;95546.06;5053457;28;20195;-75
2020/12/23 11:07:22;;;;;;;1.40;1.30;;;;;;;13.81;66.60;95544.09;5069429;28;20223;-75
2020/12/23 11:09:50;;;;;;;3.20;1.87;;;;;;;13.87;66.67;95533.91;5069089;28;20223;-75
2020/12/23 11:12:16;;;;;;;1.13;1.03;;;;;;;13.89;66.45;95540.50;5068851;28;20196;-74
2020/12/23 11:14:44;;;;;;;3.90;1.27;;;;;;;13.94;66.52;95532.94;5068385;28;20572;-74
2020/12/23 11:17:10;;;;;;;2.27;1.20;;;;;;;13.95;66.39;95536.31;5068863;28;20205;-74
2020/12/23 11:19:36;;;;;;;1.40;1.30;;;;;;;13.99;66.37;95540.13;5069285;28;20193;-74
2020/12/23 11:22:02;;;;;;;2.43;1.20;;;;;;;13.95;66.45;95539.72;5068855;28;20242;-78
2020/12/23 11:24:28;;;;;;;2.87;1.33;;;;;;;13.96;65.91;95530.94;5069380;28;20254;-75
2020/12/23 11:26:55;;;;;;;1.57;1.40;;;;;;;14.01;65.95;95527.78;5069331;28;20242;-75
2020/12/23 11:29:20;;;;;;;3.80;1.50;;;;;;;14.03;66.04;95505.88;5068227;28;20197;-75
2020/12/23 11:31:50;;;;;;;1.50;1.30;;;;;;;14.06;65.76;95517.59;5068464;28;20197;-75
2020/12/23 11:34:16;;;;;;;2.50;1.47;;;;;;;14.07;65.75;95509.63;5068968;28;20201;-75